Time;durP1;ratioP1;P1;durP2;ratioP2;P2;SDS_P1;SDS_P2;PMS_P1;PMS_P2;Temp;Humidity;BMP_temperature;BMP_pressure;BME280_temperature;BME280_humidity;BME280_pressure;Samples;Min_cycle;Max_cycle;Signal;HPM_P1;HPM_P2
2021/01/24 00:00:33;;;;;;;0.40;0.40;;;;;;;2.88;84.15;97385.22;4893053;29;20240;-84
2021/01/24 00:03:00;;;;;;;0.40;0.40;;;;;;;2.86;83.91;97389.09;4862091;29;20309;-84
2021/01/24 00:05:28;;;;;;;0.40;0.40;;;;;;;2.90;84.11;97398.19;4910331;29;20225;-84
2021/01/24 00:07:54;;;;;;;0.40;0.40;;;;;;;2.89;84.24;97386.78;4908471;29;20228;-83
2021/01/24 00:10:25;;;;;;;0.40;0.40;;;;;;;2.79;84.05;97388.38;4915720;29;20231;-84
2021/01/24 00:12:54;;;;;;;0.40;0.40;;;;;;;2.78;84.29;97381.47;4912894;29;20251;-85
2021/01/24 00:15:21;;;;;;;0.30;0.30;;;;;;;2.86;84.16;97395.19;4912002;29;20237;-83
2021/01/24 00:17:49;;;;;;;0.40;0.40;;;;;;;2.88;84.29;97400.25;4897237;29;20662;-85
2021/01/24 00:20:19;;;;;;;0.40;0.40;;;;;;;2.80;84.79;97382.06;4927141;29;20232;-83
2021/01/24 00:23:02;;;;;;;0.40;0.40;;;;;;;2.74;84.66;97377.66;4928535;29;20291;-84
2021/01/24 00:25:31;;;;;;;0.40;0.40;;;;;;;2.78;84.80;97394.69;4898260;29;20235;-84
2021/01/24 00:27:58;;;;;;;0.40;0.40;;;;;;;2.77;84.52;97385.97;4915394;29;20263;-83
2021/01/24 00:30:25;;;;;;;0.40;0.40;;;;;;;2.74;84.82;97383.78;4913183;29;20255;-84
2021/01/24 00:32:58;;;;;;;0.30;0.30;;;;;;;2.73;84.46;97378.69;4915880;29;20235;-84
2021/01/24 00:35:26;;;;;;;0.40;0.40;;;;;;;2.75;84.22;97376.66;4921158;29;20649;-84
2021/01/24 00:37:58;;;;;;;0.30;0.30;;;;;;;2.76;84.56;97384.34;4836404;29;20298;-84
2021/01/24 00:40:29;;;;;;;0.40;0.40;;;;;;;2.73;84.87;97376.06;4852368;29;20246;-83
2021/01/24 00:42:58;;;;;;;0.40;0.40;;;;;;;2.61;84.77;97362.81;4843807;29;20236;-85
2021/01/24 00:45:25;;;;;;;0.40;0.40;;;;;;;2.70;84.66;97377.31;4799767;29;20311;-83
2021/01/24 00:47:52;;;;;;;0.40;0.40;;;;;;;2.63;84.95;97368.66;4799119;29;20240;-84
2021/01/24 00:50:20;;;;;;;0.40;0.40;;;;;;;2.63;85.53;97366.00;4806913;29;20237;-84
2021/01/24 00:52:52;;;;;;;0.40;0.40;;;;;;;2.67;85.48;97369.81;4799587;29;20264;-84
2021/01/24 00:55:19;;;;;;;0.40;0.40;;;;;;;2.61;85.58;97368.09;4799128;29;20590;-83
2021/01/24 00:57:46;;;;;;;0.40;0.40;;;;;;;2.65;85.86;97371.91;4804831;29;20259;-83
2021/01/24 01:00:14;;;;;;;0.40;0.40;;;;;;;2.70;85.65;97372.03;4835486;29;20267;-84
2021/01/24 01:02:42;;;;;;;0.40;0.40;;;;;;;2.63;85.68;97361.53;4833575;29;20231;-83
2021/01/24 01:05:11;;;;;;;0.40;0.40;;;;;;;2.59;85.94;97360.38;4819341;29;20240;-84
2021/01/24 01:07:38;;;;;;;0.40;0.40;;;;;;;2.54;86.27;97351.50;4831912;29;20235;-84
2021/01/24 01:10:05;;;;;;;0.40;0.40;;;;;;;2.59;86.41;97365.66;4815738;29;20246;-84
2021/01/24 01:12:34;;;;;;;0.40;0.40;;;;;;;2.53;86.36;97355.16;4817593;29;20228;-84
2021/01/24 01:15:01;;;;;;;0.30;0.30;;;;;;;2.51;86.03;97355.41;4844112;29;20244;-84
2021/01/24 01:17:30;;;;;;;0.40;0.40;;;;;;;2.60;86.63;97361.19;4854207;29;20236;-83
2021/01/24 01:19:58;;;;;;;0.30;0.30;;;;;;;2.51;85.92;97349.31;4826692;29;20242;-83
2021/01/24 01:22:27;;;;;;;0.30;0.30;;;;;;;2.59;86.11;97357.72;4822844;29;20243;-83
2021/01/24 01:24:54;;;;;;;0.33;0.33;;;;;;;2.57;86.59;97348.41;4821466;29;20779;-84
2021/01/24 01:27:23;;;;;;;0.40;0.40;;;;;;;2.53;86.63;97339.31;4819304;29;20306;-83
2021/01/24 01:29:53;;;;;;;0.40;0.40;;;;;;;2.58;86.85;97337.59;4820456;29;20261;-83
2021/01/24 01:32:34;;;;;;;0.40;0.40;;;;;;;2.58;86.86;97337.59;4852055;29;20241;-83
2021/01/24 01:35:03;;;;;;;0.40;0.40;;;;;;;2.52;86.69;97329.78;4822479;29;20236;-84
2021/01/24 01:37:31;;;;;;;0.40;0.40;;;;;;;2.56;86.82;97329.13;4918033;29;20236;-84
2021/01/24 01:40:01;;;;;;;0.40;0.40;;;;;;;2.57;86.65;97324.59;4899412;29;20232;-83
2021/01/24 01:42:31;;;;;;;0.40;0.40;;;;;;;2.57;86.49;97325.41;4929138;29;20244;-83
2021/01/24 01:45:05;;;;;;;0.40;0.40;;;;;;;2.55;86.60;97318.75;4934140;29;20787;-84
2021/01/24 01:47:34;;;;;;;0.40;0.40;;;;;;;2.60;86.83;97308.31;4902330;29;20239;-84
2021/01/24 01:50:05;;;;;;;0.40;0.40;;;;;;;2.52;86.76;97298.06;4895955;29;20239;-84
2021/01/24 01:52:34;;;;;;;0.40;0.40;;;;;;;2.53;86.47;97297.81;4879231;29;20236;-83
2021/01/24 01:55:03;;;;;;;0.40;0.40;;;;;;;2.50;86.55;97308.84;4911963;29;20248;-84
2021/01/24 01:57:32;;;;;;;0.40;0.40;;;;;;;2.47;86.79;97309.28;4881037;29;20237;-83
2021/01/24 02:00:01;;;;;;;0.40;0.40;;;;;;;2.29;86.75;97290.81;4927568;29;20224;-83
2021/01/24 02:03:45;;;;;;;0.40;0.40;;;;;;;2.25;86.40;97297.59;4887752;29;20229;-83
2021/01/24 02:06:44;;;;;;;0.40;0.40;;;;;;;2.33;86.75;97309.72;4837101;29;20233;-83
2021/01/24 02:09:48;;;;;;;0.40;0.40;;;;;;;2.29;87.19;97303.25;4874421;29;20246;-83
2021/01/24 02:13:18;;;;;;;0.40;0.40;;;;;;;2.36;86.84;97309.25;4888826;29;20273;-82
2021/01/24 02:16:03;;;;;;;0.40;0.40;;;;;;;2.34;87.19;97296.25;4891257;29;20244;-83
2021/01/24 02:18:31;;;;;;;0.30;0.30;;;;;;;2.30;86.96;97292.44;4906352;29;20241;-83
2021/01/24 02:21:41;;;;;;;0.40;0.40;;;;;;;2.30;86.73;97294.28;4862823;29;20247;-83
2021/01/24 02:24:12;;;;;;;0.40;0.40;;;;;;;2.31;87.06;97293.25;4890578;29;20339;-83
2021/01/24 02:27:03;;;;;;;0.40;0.40;;;;;;;2.24;87.06;97289.91;4891799;29;20260;-82
2021/01/24 02:30:07;;;;;;;0.40;0.40;;;;;;;2.31;87.46;97301.19;4878834;29;20236;-83
2021/01/24 02:32:35;;;;;;;0.40;0.40;;;;;;;2.30;87.19;97318.06;4875152;29;20341;-83
2021/01/24 02:35:04;;;;;;;0.40;0.40;;;;;;;2.20;87.52;97305.38;4911509;29;20251;-84
2021/01/24 02:37:37;;;;;;;0.40;0.40;;;;;;;2.25;87.15;97312.63;4912260;29;20296;-83
2021/01/24 02:40:11;;;;;;;0.40;0.40;;;;;;;2.19;87.58;97301.16;4927107;29;20232;-83
2021/01/24 02:42:39;;;;;;;0.40;0.40;;;;;;;2.20;87.58;97302.72;4927974;29;20246;-83
2021/01/24 02:45:09;;;;;;;0.40;0.40;;;;;;;2.22;87.53;97316.53;4912965;29;20240;-82
2021/01/24 02:47:38;;;;;;;0.40;0.40;;;;;;;2.19;87.22;97320.41;4912528;29;20238;-82
2021/01/24 02:50:16;;;;;;;0.40;0.40;;;;;;;2.26;87.37;97327.47;4916887;29;20314;-83
2021/01/24 02:53:03;;;;;;;0.40;0.40;;;;;;;2.20;87.00;97323.88;4931728;29;20232;-83
2021/01/24 02:55:46;;;;;;;0.40;0.40;;;;;;;2.20;87.44;97324.69;4931298;29;20238;-83
2021/01/24 02:58:38;;;;;;;0.40;0.40;;;;;;;2.20;87.38;97324.69;4878423;29;20235;-84
2021/01/24 03:01:06;;;;;;;0.40;0.40;;;;;;;2.18;87.47;97308.25;4947029;29;20698;-82
2021/01/24 03:03:33;;;;;;;0.40;0.40;;;;;;;2.20;87.27;97308.81;4915843;29;20698;-84
2021/01/24 03:06:01;;;;;;;0.40;0.40;;;;;;;2.24;86.88;97309.19;4931951;29;20232;-83
2021/01/24 03:08:32;;;;;;;0.40;0.40;;;;;;;2.12;86.65;97298.56;4928281;29;20235;-84
2021/01/24 03:10:59;;;;;;;0.40;0.40;;;;;;;2.15;86.88;97313.16;4901024;29;20235;-84
2021/01/24 03:14:08;;;;;;;0.40;0.40;;;;;;;2.09;86.48;97311.44;4929468;29;20246;-84
2021/01/24 03:16:39;;;;;;;0.40;0.40;;;;;;;2.07;86.94;97308.19;4930546;29;20263;-84
2021/01/24 03:19:11;;;;;;;0.40;0.40;;;;;;;2.08;87.03;97317.72;4915099;29;20243;-83
2021/01/24 03:21:39;;;;;;;0.40;0.40;;;;;;;2.02;87.12;97321.25;4910913;29;20291;-83
2021/01/24 03:24:09;;;;;;;0.40;0.40;;;;;;;2.05;87.30;97328.75;4911441;29;20715;-84
2021/01/24 03:26:41;;;;;;;0.40;0.40;;;;;;;1.96;87.33;97315.00;4915341;29;20247;-83
2021/01/24 03:29:12;;;;;;;0.40;0.40;;;;;;;1.89;86.93;97324.84;4928772;29;20224;-84
2021/01/24 03:31:44;;;;;;;0.30;0.30;;;;;;;1.90;87.54;97344.16;4911329;29;20319;-82
2021/01/24 03:34:22;;;;;;;0.30;0.30;;;;;;;1.85;87.70;97338.72;4910735;29;20242;-83
2021/01/24 03:36:52;;;;;;;0.40;0.40;;;;;;;1.80;87.56;97336.72;4865149;29;20249;-83
2021/01/24 03:39:20;;;;;;;0.40;0.40;;;;;;;1.71;86.91;97327.50;4833395;29;20274;-83
2021/01/24 03:41:47;;;;;;;0.40;0.40;;;;;;;1.64;87.14;97329.38;4835370;29;20696;-83
2021/01/24 03:44:16;;;;;;;0.40;0.40;;;;;;;1.62;87.17;97331.44;4817207;29;20247;-84
2021/01/24 03:46:52;;;;;;;0.40;0.40;;;;;;;1.49;87.28;97319.19;4819444;29;20267;-83
2021/01/24 03:49:21;;;;;;;0.30;0.30;;;;;;;1.44;87.54;97308.47;4828156;29;20263;-83
2021/01/24 03:51:49;;;;;;;0.40;0.40;;;;;;;1.42;87.66;97322.91;4795010;29;20279;-83
2021/01/24 03:54:19;;;;;;;0.40;0.40;;;;;;;1.37;87.58;97320.91;4815668;29;20252;-83
2021/01/24 03:56:47;;;;;;;0.40;0.40;;;;;;;1.24;87.33;97308.66;4812516;29;20238;-83
2021/01/24 03:59:17;;;;;;;0.40;0.40;;;;;;;1.23;87.57;97308.88;4835075;29;20759;-83
2021/01/24 04:01:45;;;;;;;0.30;0.30;;;;;;;1.16;87.58;97303.66;4824822;29;20235;-83
2021/01/24 04:04:13;;;;;;;0.40;0.40;;;;;;;1.10;87.49;97304.53;4815246;29;20274;-83
2021/01/24 04:06:41;;;;;;;0.40;0.40;;;;;;;1.01;87.89;97295.25;4840116;29;20250;-83
2021/01/24 04:09:14;;;;;;;0.30;0.30;;;;;;;1.06;88.07;97315.72;4834597;29;20242;-83
2021/01/24 04:11:44;;;;;;;0.40;0.40;;;;;;;1.01;87.93;97311.09;4812691;29;20267;-84
2021/01/24 04:14:10;;;;;;;0.40;0.40;;;;;;;0.98;88.01;97308.06;4810894;29;20700;-84
2021/01/24 04:16:37;;;;;;;0.40;0.40;;;;;;;0.89;87.84;97297.78;4812391;29;20279;-83
2021/01/24 04:19:04;;;;;;;0.40;0.40;;;;;;;0.91;88.07;97299.41;4781731;29;20237;-83
2021/01/24 04:21:30;;;;;;;0.40;0.40;;;;;;;0.90;88.61;97303.88;4805470;29;20239;-83
2021/01/24 04:23:59;;;;;;;0.40;0.40;;;;;;;0.82;88.34;97290.94;4817413;29;20235;-84
2021/01/24 04:26:30;;;;;;;0.40;0.40;;;;;;;0.84;88.34;97313.44;4841372;29;20272;-85
2021/01/24 04:29:01;;;;;;;0.30;0.30;;;;;;;0.77;88.46;97303.97;4800473;29;20232;-83
2021/01/24 04:31:28;;;;;;;0.40;0.40;;;;;;;0.74;88.52;97296.50;4814307;29;20343;-83
2021/01/24 04:33:55;;;;;;;0.40;0.40;;;;;;;0.72;88.55;97285.34;4813370;29;20232;-83
2021/01/24 04:36:22;;;;;;;0.40;0.40;;;;;;;0.70;88.25;97295.31;4816205;29;20247;-83
2021/01/24 04:38:50;;;;;;;0.40;0.40;;;;;;;0.66;88.43;97296.72;4831291;29;20243;-83
2021/01/24 04:41:21;;;;;;;0.40;0.40;;;;;;;0.65;88.55;97301.22;4832199;29;20687;-82
2021/01/24 04:43:52;;;;;;;0.40;0.40;;;;;;;0.63;88.33;97297.16;4831612;29;20227;-83
2021/01/24 04:46:19;;;;;;;0.40;0.40;;;;;;;0.56;88.73;97309.59;4815443;29;20239;-83
2021/01/24 04:48:46;;;;;;;0.40;0.40;;;;;;;0.56;88.92;97309.59;4832388;29;20243;-83
2021/01/24 04:51:18;;;;;;;0.40;0.40;;;;;;;0.47;89.09;97331.94;4831042;29;20231;-82
2021/01/24 04:53:49;;;;;;;0.40;0.40;;;;;;;0.40;89.17;97326.69;4831601;29;20243;-83
2021/01/24 04:56:20;;;;;;;0.40;0.40;;;;;;;0.30;88.85;97318.44;4845375;29;20310;-83
2021/01/24 04:58:48;;;;;;;0.40;0.40;;;;;;;0.36;88.62;97328.94;4832102;29;20302;-83
2021/01/24 05:01:17;;;;;;;0.40;0.40;;;;;;;0.34;88.91;97332.78;4831260;29;20228;-83
2021/01/24 05:03:46;;;;;;;0.40;0.40;;;;;;;0.37;88.97;97343.72;4812964;29;20259;-82
2021/01/24 05:06:14;;;;;;;0.40;0.40;;;;;;;0.28;89.55;97346.81;4812080;29;20231;-82
2021/01/24 05:08:46;;;;;;;0.40;0.40;;;;;;;0.27;89.48;97353.09;4814904;29;20235;-83
2021/01/24 05:11:15;;;;;;;0.40;0.40;;;;;;;0.29;89.15;97372.94;4846721;29;20231;-83
2021/01/24 05:13:47;;;;;;;0.40;0.40;;;;;;;0.28;89.29;97378.44;4824084;29;20236;-83
2021/01/24 05:16:15;;;;;;;0.40;0.40;;;;;;;0.27;89.20;97371.53;4808424;29;20247;-83
2021/01/24 05:18:42;;;;;;;0.40;0.40;;;;;;;0.25;89.01;97368.28;4812025;29;20660;-83
2021/01/24 05:21:09;;;;;;;0.40;0.40;;;;;;;0.20;89.35;97368.09;4846570;29;20240;-82
2021/01/24 05:23:38;;;;;;;0.40;0.40;;;;;;;0.20;89.45;97366.28;4800804;29;20249;-83
2021/01/24 05:26:09;;;;;;;0.40;0.40;;;;;;;0.19;89.28;97369.13;4796402;29;20243;-83
2021/01/24 05:28:45;;;;;;;0.40;0.40;;;;;;;0.11;89.13;97350.94;4811990;29;20692;-83
2021/01/24 05:31:12;;;;;;;0.40;0.40;;;;;;;0.12;89.35;97361.25;4810434;29;20232;-83
2021/01/24 05:33:44;;;;;;;0.40;0.40;;;;;;;-0.01;89.10;97345.53;4824938;29;20235;-84
2021/01/24 05:36:10;;;;;;;0.40;0.40;;;;;;;0.06;89.39;97363.91;4813858;29;20243;-82
2021/01/24 05:38:38;;;;;;;0.40;0.40;;;;;;;0.05;89.61;97362.31;4802884;29;20243;-82
2021/01/24 05:41:08;;;;;;;0.40;0.40;;;;;;;0.11;89.08;97374.63;4797480;29;20224;-84
2021/01/24 05:43:46;;;;;;;0.40;0.40;;;;;;;0.09;89.25;97384.56;4838530;29;20248;-83
2021/01/24 05:46:13;;;;;;;0.40;0.40;;;;;;;0.03;89.60;97380.94;4828927;29;20239;-83
2021/01/24 05:48:48;;;;;;;0.40;0.40;;;;;;;-0.02;89.42;97383.38;4818407;29;20287;-83
2021/01/24 05:51:16;;;;;;;0.40;0.40;;;;;;;-0.01;89.31;97385.81;4811201;29;20676;-83
2021/01/24 05:53:49;;;;;;;0.40;0.40;;;;;;;-0.04;89.33;97394.09;4807807;29;20295;-83
2021/01/24 05:56:17;;;;;;;0.40;0.40;;;;;;;-0.04;89.64;97394.09;4828733;29;20257;-83
2021/01/24 05:58:43;;;;;;;0.40;0.40;;;;;;;-0.02;89.63;97409.72;4818945;29;20236;-83
2021/01/24 06:01:30;;;;;;;0.40;0.40;;;;;;;-0.03;89.53;97406.25;4811259;29;20244;-83
2021/01/24 06:04:01;;;;;;;0.40;0.40;;;;;;;-0.04;89.15;97412.53;4823550;29;20243;-83
2021/01/24 06:06:28;;;;;;;0.30;0.30;;;;;;;-0.06;89.13;97417.22;4814592;29;20577;-82
2021/01/24 06:08:55;;;;;;;0.40;0.40;;;;;;;-0.10;89.10;97418.66;4820916;29;20244;-82
2021/01/24 06:11:22;;;;;;;0.40;0.40;;;;;;;-0.21;89.12;97421.88;4800071;29;20244;-84
2021/01/24 06:13:53;;;;;;;0.40;0.40;;;;;;;-0.16;89.58;97434.44;4810114;29;20310;-82
2021/01/24 06:16:29;;;;;;;0.40;0.40;;;;;;;-0.16;89.44;97442.34;4833132;29;20743;-83
2021/01/24 06:19:05;;;;;;;0.40;0.40;;;;;;;-0.21;89.73;97439.50;4811364;29;20240;-83
2021/01/24 06:21:41;;;;;;;0.40;0.40;;;;;;;-0.25;89.28;97436.47;4810931;29;20220;-83
2021/01/24 06:24:26;;;;;;;0.40;0.40;;;;;;;-0.20;89.82;97443.75;4830624;29;20278;-82
2021/01/24 06:27:04;;;;;;;0.30;0.30;;;;;;;-0.19;89.65;97451.47;4845896;29;20746;-82
2021/01/24 06:29:36;;;;;;;0.40;0.40;;;;;;;-0.16;89.61;97453.66;4833922;29;20330;-83
2021/01/24 06:32:05;;;;;;;0.40;0.40;;;;;;;-0.18;90.35;97458.31;4798902;29;20335;-83
2021/01/24 06:34:37;;;;;;;0.40;0.40;;;;;;;-0.07;90.39;97467.44;4798919;29;20244;-83
2021/01/24 06:37:21;;;;;;;0.40;0.40;;;;;;;-0.01;90.40;97483.22;4878225;29;20680;-82
2021/01/24 06:40:03;;;;;;;0.40;0.40;;;;;;;0.01;90.07;97490.91;4895882;29;20228;-82
2021/01/24 06:42:42;;;;;;;0.40;0.40;;;;;;;0.10;90.37;97494.94;4924716;29;20240;-82
2021/01/24 06:45:28;;;;;;;0.40;0.40;;;;;;;0.16;90.39;97488.03;4928361;29;20260;-84
2021/01/24 06:47:56;;;;;;;0.40;0.40;;;;;;;0.16;90.75;97494.13;4928560;29;20311;-83
2021/01/24 06:50:39;;;;;;;0.40;0.40;;;;;;;0.29;90.43;97507.25;4908961;29;20240;-83
2021/01/24 06:53:17;;;;;;;0.40;0.40;;;;;;;0.29;90.49;97499.34;4926061;29;20223;-83
2021/01/24 06:56:05;;;;;;;0.40;0.40;;;;;;;0.40;90.83;97501.38;4909515;29;20244;-83
2021/01/24 06:58:34;;;;;;;0.40;0.40;;;;;;;0.54;90.97;97506.59;4910209;29;20259;-84
2021/01/24 07:01:25;;;;;;;0.40;0.40;;;;;;;0.60;90.81;97511.03;4910179;29;20241;-85
2021/01/24 07:04:36;;;;;;;0.40;0.40;;;;;;;0.67;90.20;97520.53;4930843;29;20664;-84
2021/01/24 07:07:30;;;;;;;0.40;0.40;;;;;;;0.73;90.26;97521.53;4929787;29;20242;-84
2021/01/24 07:10:00;;;;;;;0.40;0.40;;;;;;;0.72;90.05;97504.09;4946970;29;20277;-83
2021/01/24 07:12:54;;;;;;;0.40;0.40;;;;;;;0.85;90.03;97523.31;4913899;29;20236;-84
2021/01/24 07:16:08;;;;;;;0.40;0.40;;;;;;;0.86;90.05;97510.94;4929763;29;20650;-84
2021/01/24 07:19:09;;;;;;;0.40;0.40;;;;;;;0.93;90.31;97510.94;4926145;29;20244;-84
2021/01/24 07:22:29;;;;;;;0.40;0.40;;;;;;;1.03;89.73;97501.53;4892511;29;20348;-84
2021/01/24 07:24:58;;;;;;;0.40;0.40;;;;;;;1.06;89.79;97501.13;4937442;29;20271;-84
2021/01/24 07:27:29;;;;;;;0.40;0.40;;;;;;;1.17;89.48;97523.34;4898419;29;20236;-84
2021/01/24 07:30:16;;;;;;;0.40;0.40;;;;;;;1.11;89.17;97503.13;4904053;29;20236;-84
2021/01/24 07:33:30;;;;;;;0.40;0.40;;;;;;;1.17;89.05;97523.34;4914352;29;20322;-88
2021/01/24 07:39:47;;;;;;;0.50;0.50;;;;;;;1.09;88.38;97503.31;5648954;23;20239;-82
2021/01/24 07:43:28;;;;;;;0.40;0.40;;;;;;;1.22;88.68;97534.09;1119365;23;20740;-81
2021/01/24 07:46:50;;;;;;;0.40;0.40;;;;;;;1.27;88.73;97542.19;2069252;23;20198;-82
2021/01/24 07:50:07;;;;;;;0.47;0.47;;;;;;;1.32;87.99;97564.28;5368479;23;20255;-82
2021/01/24 07:56:18;;;;;;;0.40;0.40;;;;;;;1.24;88.23;97514.41;5064976;23;20241;-83
2021/01/24 08:00:01;;;;;;;0.40;0.40;;;;;;;1.68;88.29;97555.75;5299695;23;20216;-83
2021/01/24 09:22:55;;;;;;;0.40;0.40;;;;;;;4.37;80.11;97623.31;5007865;23;20239;-81
2021/01/24 09:35:56;;;;;;;0.30;0.30;;;;;;;5.53;74.72;97658.78;2968564;23;20557;-81
2021/01/24 09:49:23;;;;;;;0.30;0.30;;;;;;;6.10;68.22;97663.13;1761399;23;20508;-83
2021/01/24 09:53:12;;;;;;;0.40;0.40;;;;;;;5.98;66.38;97630.47;4920350;23;21356;-82
2021/01/24 09:59:59;;;;;;;0.40;0.40;;;;;;;6.45;62.95;97667.44;4913118;29;20226;-81
2021/01/24 10:03:42;;;;;;;0.30;0.30;;;;;;;6.26;62.08;97621.63;4904923;29;20207;-81
2021/01/24 10:07:48;;;;;;;0.37;0.37;;;;;;;6.67;58.31;97657.72;4965096;23;20229;-81
2021/01/24 10:11:31;;;;;;;0.40;0.40;;;;;;;6.48;57.63;97581.84;4978485;23;20226;-81
2021/01/24 10:15:13;;;;;;;0.30;0.30;;;;;;;6.89;57.33;97617.84;4984887;23;20237;-81
2021/01/24 10:19:04;;;;;;;0.30;0.30;;;;;;;6.91;54.81;97605.09;5050544;23;20233;-81
2021/01/24 10:26:38;;;;;;;0.30;0.30;;;;;;;7.11;55.05;97624.00;4992605;23;20292;-81
2021/01/24 10:36:29;;;;;;;0.40;0.40;;;;;;;6.59;52.23;97572.94;5114163;23;20181;-82
2021/01/24 10:39:53;;;;;;;0.40;0.40;;;;;;;6.73;54.53;97608.81;4990656;23;20245;-81
2021/01/24 10:47:39;;;;;;;0.30;0.30;;;;;;;6.44;50.46;97613.44;5091038;23;20243;-83
2021/01/24 10:55:42;;;;;;;0.40;0.40;;;;;;;6.63;48.90;97641.41;4981803;23;20296;-83
2021/01/24 10:59:36;;;;;;;0.30;0.30;;;;;;;6.63;49.53;97629.94;4965583;23;20215;-83
2021/01/24 11:03:34;;;;;;;0.30;0.30;;;;;;;6.89;48.40;97642.63;5269453;23;20198;-82
2021/01/24 11:06:43;;;;;;;0.30;0.30;;;;;;;7.08;49.23;97624.50;4987334;23;20244;-82
2021/01/24 11:09:28;;;;;;;0.40;0.40;;;;;;;7.27;48.85;97635.69;4911879;23;20240;-82
2021/01/24 11:12:27;;;;;;;0.33;0.33;;;;;;;7.57;48.49;97656.56;4989254;23;20223;-82
2021/01/24 11:15:01;;;;;;;0.30;0.30;;;;;;;7.68;46.59;97653.78;4928228;23;20245;-83
2021/01/24 11:17:57;;;;;;;0.30;0.30;;;;;;;7.98;43.74;97647.97;4917047;29;20225;-82
2021/01/24 11:20:28;;;;;;;0.30;0.30;;;;;;;8.05;42.67;97680.59;4935357;29;20246;-82
2021/01/24 11:22:58;;;;;;;0.37;0.37;;;;;;;8.07;41.85;97675.03;4934820;29;20240;-83
2021/01/24 11:25:28;;;;;;;0.40;0.40;;;;;;;7.86;41.20;97666.78;4964310;29;20323;-81
2021/01/24 11:28:22;;;;;;;0.40;0.40;;;;;;;8.12;41.58;97669.75;4951311;29;20262;-82
2021/01/24 11:31:29;;;;;;;0.33;0.33;;;;;;;8.34;39.03;97676.66;4913057;29;20245;-83
2021/01/24 11:33:56;;;;;;;0.30;0.30;;;;;;;8.22;40.07;97672.50;4924470;29;20232;-82
2021/01/24 11:36:37;;;;;;;0.30;0.30;;;;;;;8.49;41.11;97678.66;4931549;29;20236;-83
2021/01/24 11:39:31;;;;;;;0.30;0.30;;;;;;;8.50;40.30;97655.44;4935196;29;20220;-82
2021/01/24 11:42:08;;;;;;;0.40;0.40;;;;;;;8.23;37.40;97674.09;4933038;29;20304;-82
2021/01/24 11:44:58;;;;;;;0.30;0.30;;;;;;;8.23;37.61;97688.25;4935240;29;20232;-82
2021/01/24 11:47:29;;;;;;;0.40;0.40;;;;;;;8.19;40.48;97697.00;4933573;29;20199;-82
2021/01/24 11:50:01;;;;;;;0.30;0.30;;;;;;;8.03;38.32;97671.22;4962853;29;20216;-82
2021/01/24 11:52:39;;;;;;;0.30;0.30;;;;;;;8.06;39.33;97686.75;4963145;29;20587;-82
2021/01/24 11:55:12;;;;;;;0.40;0.40;;;;;;;8.00;39.76;97683.22;4931582;29;20232;-82
2021/01/24 11:57:53;;;;;;;0.30;0.30;;;;;;;7.98;39.77;97682.63;4931716;29;20235;-82
2021/01/24 12:00:29;;;;;;;0.37;0.37;;;;;;;7.72;39.04;97643.44;4928477;29;20232;-82
2021/01/24 12:03:07;;;;;;;0.40;0.40;;;;;;;7.67;38.44;97633.50;4930440;29;20220;-82
2021/01/24 12:05:41;;;;;;;0.30;0.30;;;;;;;7.53;38.02;97658.91;4941444;29;20233;-82
2021/01/24 12:08:15;;;;;;;0.30;0.30;;;;;;;7.58;38.40;97668.84;4942487;29;20223;-80
2021/01/24 12:10:53;;;;;;;0.30;0.30;;;;;;;7.63;38.59;97652.91;4913311;29;20244;-80
2021/01/24 12:16:47;;;;;;;0.30;0.30;;;;;;;7.15;39.43;97622.47;4817485;29;20249;-82
2021/01/24 12:19:15;;;;;;;0.40;0.40;;;;;;;6.95;38.31;97608.88;4868933;29;20185;-83
2021/01/24 12:21:50;;;;;;;0.30;0.30;;;;;;;7.12;39.56;97646.13;4906055;23;20269;-83
2021/01/24 12:28:03;;;;;;;0.40;0.40;;;;;;;6.90;41.38;97638.91;5039237;23;20245;-83
2021/01/24 12:40:06;;;;;;;0.30;0.30;;;;;;;6.56;42.46;97638.13;1455393;23;20659;-80
2021/01/24 12:42:39;;;;;;;0.40;0.40;;;;;;;6.64;42.95;97637.69;4922002;29;20240;-82
2021/01/24 12:45:12;;;;;;;0.37;0.37;;;;;;;6.51;43.12;97626.56;4925244;29;20223;-82
2021/01/24 12:47:43;;;;;;;0.40;0.40;;;;;;;6.42;43.30;97631.50;4939930;29;20242;-81
2021/01/24 12:51:18;;;;;;;0.40;0.40;;;;;;;6.50;43.07;97635.59;4885631;28;20205;-84
2021/01/24 12:55:10;;;;;;;0.30;0.30;;;;;;;6.51;43.85;97631.91;4881692;29;20198;-82
2021/01/24 12:58:02;;;;;;;0.40;0.40;;;;;;;6.45;43.20;97606.25;4933636;29;20221;-83
2021/01/24 13:00:45;;;;;;;0.40;0.40;;;;;;;6.69;43.40;97614.88;4925417;29;20233;-82
2021/01/24 13:03:34;;;;;;;0.30;0.30;;;;;;;6.67;42.26;97633.75;4880912;29;20210;-83
2021/01/24 13:06:26;;;;;;;0.40;0.40;;;;;;;6.45;41.45;97616.91;5037430;23;20265;-82
2021/01/24 13:09:02;;;;;;;0.30;0.30;;;;;;;6.62;42.54;97654.97;4906116;29;20318;-81
2021/01/24 13:11:32;;;;;;;0.37;0.37;;;;;;;6.49;42.68;97632.13;4953227;29;20210;-82
2021/01/24 13:14:27;;;;;;;0.40;0.40;;;;;;;6.58;42.08;97653.81;4955271;23;20222;-81
2021/01/24 13:17:01;;;;;;;0.40;0.40;;;;;;;6.42;42.06;97647.47;4951363;29;20346;-81
2021/01/24 13:19:43;;;;;;;0.40;0.40;;;;;;;6.39;43.57;97663.88;4953334;29;20245;-81
2021/01/24 13:22:24;;;;;;;0.30;0.30;;;;;;;6.34;42.87;97663.81;4977701;23;20231;-79
2021/01/24 13:25:15;;;;;;;0.40;0.40;;;;;;;6.20;42.70;97655.31;4940246;23;20228;-81
2021/01/24 13:27:44;;;;;;;0.30;0.30;;;;;;;6.19;43.32;97658.22;4953042;28;20243;-80
2021/01/24 13:30:45;;;;;;;0.40;0.40;;;;;;;6.04;43.13;97632.16;4955305;23;20247;-80
2021/01/24 13:33:51;;;;;;;0.40;0.40;;;;;;;6.07;42.59;97668.91;5041045;23;20211;-79
2021/01/24 13:37:02;;;;;;;0.40;0.40;;;;;;;5.94;42.20;97674.50;4945756;29;20224;-79
2021/01/24 13:40:50;;;;;;;0.40;0.40;;;;;;;5.94;42.14;97687.00;4973275;23;20265;-79
2021/01/24 13:44:12;;;;;;;0.30;0.30;;;;;;;5.94;43.06;97690.47;4978533;23;20231;-80
2021/01/24 13:47:30;;;;;;;0.40;0.40;;;;;;;5.91;42.65;97676.84;4945623;23;20223;-79
2021/01/24 13:50:59;;;;;;;0.40;0.40;;;;;;;5.82;43.20;97681.69;4964774;23;20238;-82
2021/01/24 13:54:08;;;;;;;0.40;0.40;;;;;;;5.79;42.59;97690.13;4959674;23;20230;-81
2021/01/24 13:57:13;;;;;;;0.40;0.40;;;;;;;5.83;43.74;97693.13;4964442;23;20646;-79
2021/01/24 14:00:46;;;;;;;0.40;0.40;;;;;;;5.73;43.60;97689.25;4974482;23;20261;-81
2021/01/24 14:03:39;;;;;;;0.40;0.40;;;;;;;5.61;43.92;97677.00;4953505;23;20295;-81
2021/01/24 14:10:19;;;;;;;0.40;0.40;;;;;;;5.53;43.83;97672.06;4919414;29;20245;-81
2021/01/24 14:13:45;;;;;;;0.40;0.40;;;;;;;5.61;44.67;97669.03;4955281;23;20240;-80
2021/01/24 14:17:47;;;;;;;0.40;0.40;;;;;;;5.55;44.28;97689.38;4978783;23;20233;-82
2021/01/24 14:21:00;;;;;;;0.40;0.40;;;;;;;5.56;45.19;97698.97;4922100;23;20232;-81
2021/01/24 14:24:19;;;;;;;0.40;0.40;;;;;;;5.36;45.17;97687.13;4978461;23;20241;-81
2021/01/24 14:27:27;;;;;;;0.40;0.40;;;;;;;5.38;45.29;97715.03;4978272;28;20282;-81
2021/01/24 14:30:55;;;;;;;0.40;0.40;;;;;;;5.41;45.78;97721.75;4994253;23;20215;-79
2021/01/24 14:34:42;;;;;;;0.30;0.30;;;;;;;5.30;46.01;97723.38;5007210;23;20238;-80
2021/01/24 14:37:33;;;;;;;0.30;0.30;;;;;;;5.25;46.86;97724.06;4943280;23;20249;-80
2021/01/24 14:41:18;;;;;;;0.40;0.40;;;;;;;4.94;45.78;97703.19;5135871;23;20219;-80
2021/01/24 14:44:21;;;;;;;0.40;0.40;;;;;;;5.01;45.96;97713.66;4954338;23;20224;-81
2021/01/24 14:47:36;;;;;;;0.40;0.40;;;;;;;5.07;46.36;97726.03;4975516;23;20208;-80
2021/01/24 14:54:46;;;;;;;0.40;0.40;;;;;;;4.68;47.26;97685.84;4941789;23;20238;-81
2021/01/24 15:02:02;;;;;;;0.30;0.30;;;;;;;4.85;48.14;97731.09;5129869;23;20283;-80
2021/01/24 15:05:59;;;;;;;0.40;0.40;;;;;;;4.86;48.05;97730.03;4964212;23;20233;-81
2021/01/24 15:09:45;;;;;;;0.40;0.40;;;;;;;4.79;47.85;97722.19;4955616;23;20243;-81
2021/01/24 15:13:22;;;;;;;0.40;0.40;;;;;;;4.70;48.20;97722.75;5040348;23;20226;-80
2021/01/24 15:17:11;;;;;;;0.33;0.33;;;;;;;4.66;49.44;97729.56;4944802;23;20239;-81
2021/01/24 15:20:37;;;;;;;0.40;0.40;;;;;;;4.62;49.58;97726.53;4975122;23;20244;-81
2021/01/24 15:29:22;;;;;;;0.40;0.40;;;;;;;4.28;50.47;97711.34;5038547;23;20308;-81
2021/01/24 15:32:43;;;;;;;0.40;0.40;;;;;;;4.28;51.25;97730.72;4985809;28;20254;-80
2021/01/24 15:36:17;;;;;;;0.40;0.40;;;;;;;4.13;50.67;97708.31;4987908;23;20227;-81
2021/01/24 15:39:17;;;;;;;0.40;0.40;;;;;;;4.18;50.42;97719.03;5041530;23;20231;-81
2021/01/24 15:42:08;;;;;;;0.40;0.40;;;;;;;4.02;51.03;97706.41;4871545;29;20224;-80
2021/01/24 15:45:21;;;;;;;0.30;0.30;;;;;;;4.05;52.62;97725.34;4826956;29;20277;-81
2021/01/24 15:48:42;;;;;;;0.40;0.40;;;;;;;3.96;52.78;97738.09;5047249;23;20651;-80
2021/01/24 15:51:31;;;;;;;0.40;0.40;;;;;;;3.91;51.76;97723.88;4922585;23;20240;-79
2021/01/24 15:55:04;;;;;;;0.40;0.40;;;;;;;3.98;50.65;97730.72;4949834;23;20243;-79